createdAt,value
2019-04-23T00:00:29.384Z,13.70
2019-04-23T00:03:03.402Z,13.70
2019-04-23T00:08:08.106Z,13.90
2019-04-23T00:10:30.337Z,14.00
2019-04-23T00:13:01.148Z,14.00
2019-04-23T00:16:00.339Z,14.10
2019-04-23T00:18:30.147Z,14.10
2019-04-23T00:20:57.195Z,14.20
2019-04-23T00:23:25.064Z,14.20
2019-04-23T00:26:00.350Z,14.20
2019-04-23T00:28:35.911Z,14.20
2019-04-23T00:31:09.676Z,14.20
2019-04-23T00:33:31.393Z,14.10
2019-04-23T00:36:07.039Z,14.30
2019-04-23T00:38:33.668Z,14.30
2019-04-23T00:40:59.443Z,14.40
2019-04-23T00:43:52.815Z,14.40
2019-04-23T00:45:54.550Z,14.30
2019-04-23T00:51:09.301Z,13.80
2019-04-23T00:53:28.296Z,13.50
2019-04-23T00:56:20.663Z,13.30
2019-04-23T00:58:38.214Z,13.20
2019-04-23T01:00:57.922Z,13.20
2019-04-23T01:03:25.710Z,13.10
2019-04-23T01:06:02.712Z,13.10
2019-04-23T01:08:31.810Z,12.90
2019-04-23T01:11:09.349Z,12.70
2019-04-23T01:13:43.139Z,12.50
2019-04-23T01:16:08.945Z,12.40
2019-04-23T01:18:54.098Z,12.30
2019-04-23T01:21:13.803Z,12.10
2019-04-23T01:24:06.367Z,11.80
2019-04-23T01:27:33.187Z,11.70
2019-04-23T01:29:54.546Z,11.60
2019-04-23T01:32:15.843Z,11.50
2019-04-23T01:34:51.406Z,11.40
2019-04-23T01:37:25.645Z,11.40
2019-04-23T01:39:43.885Z,11.10
2019-04-23T01:42:22.447Z,11.30
2019-04-23T01:44:58.021Z,11.30
2019-04-23T01:47:19.972Z,11.20
2019-04-23T01:49:57.202Z,11.20
2019-04-23T01:52:16.603Z,11.10
2019-04-23T01:54:45.565Z,11.10
2019-04-23T01:57:19.486Z,11.10
2019-04-23T01:59:49.772Z,11.00
2019-04-23T02:02:14.389Z,11.00
2019-04-23T02:04:44.558Z,10.90
2019-04-23T02:07:12.849Z,11.20
2019-04-23T02:09:48.207Z,11.20
2019-04-23T02:12:15.706Z,11.20
2019-04-23T02:14:48.139Z,11.10
2019-04-23T02:17:16.013Z,11.00
2019-04-23T02:19:46.101Z,10.90
2019-04-23T02:22:32.523Z,10.80
2019-04-23T02:25:13.374Z,10.70
2019-04-23T02:27:42.624Z,10.70
2019-04-23T02:30:31.105Z,10.70
2019-04-23T02:35:32.678Z,10.90
2019-04-23T02:37:54.262Z,11.00
2019-04-23T02:45:16.480Z,10.90
2019-04-23T02:50:33.015Z,10.80
2019-04-23T02:55:17.541Z,10.70
2019-04-23T02:57:44.042Z,10.60
2019-04-23T03:05:21.575Z,10.40
2019-04-23T03:10:18.298Z,10.30
2019-04-23T03:12:48.584Z,10.20
2019-04-23T03:18:35.052Z,10.10
2019-04-23T03:21:05.953Z,10.20
2019-04-23T03:23:34.405Z,10.10
2019-04-23T03:26:11.001Z,10.00
2019-04-23T03:28:37.683Z,9.90
2019-04-23T03:46:24.181Z,9.80
2019-04-23T03:51:05.665Z,9.80
2019-04-23T03:53:44.821Z,9.70
2019-04-23T03:58:39.119Z,10.00
2019-04-23T04:01:06.186Z,10.10
2019-04-23T04:04:03.985Z,10.30
2019-04-23T04:06:05.262Z,10.40
2019-04-23T04:16:00.799Z,10.00
2019-04-23T04:18:38.808Z,9.90
2019-04-23T04:21:11.894Z,9.90
2019-04-23T04:23:35.827Z,9.90
2019-04-23T04:26:08.224Z,9.90
2019-04-23T04:28:38.937Z,9.90
2019-04-23T04:31:05.589Z,10.10
2019-04-23T04:33:55.481Z,10.10
2019-04-23T04:43:44.935Z,10.20
2019-04-23T04:56:16.770Z,10.00
2019-04-23T04:58:44.081Z,10.10
2019-04-23T05:01:08.339Z,10.20
2019-04-23T05:03:29.653Z,10.20
2019-04-23T05:06:16.244Z,10.20
2019-04-23T05:08:36.754Z,11.10
2019-04-23T05:11:11.363Z,10.30
2019-04-23T05:13:45.509Z,10.30
2019-04-23T05:16:07.742Z,10.40
2019-04-23T05:21:21.464Z,10.50
2019-04-23T05:23:42.935Z,10.50
2019-04-23T05:26:23.908Z,10.70
2019-04-23T05:28:57.170Z,10.70
2019-04-23T05:31:18.688Z,10.80
2019-04-23T05:33:57.096Z,10.60
2019-04-23T05:41:27.047Z,11.20
2019-04-23T05:43:57.992Z,11.20
2019-04-23T05:46:27.826Z,11.30
2019-04-23T05:48:52.621Z,11.50
2019-04-23T05:51:31.143Z,11.70
2019-04-23T05:53:51.223Z,11.70
2019-04-23T05:56:20.905Z,11.80
2019-04-23T05:58:52.938Z,12.00
2019-04-23T06:04:10.507Z,12.30
2019-04-23T06:06:37.519Z,12.40
2019-04-23T06:11:49.095Z,12.70
2019-04-23T06:14:06.423Z,12.80
2019-04-23T06:16:41.600Z,13.10
2019-04-23T06:19:07.098Z,13.30
2019-04-23T06:21:47.867Z,13.50
2019-04-23T06:24:13.183Z,13.40
2019-04-23T06:26:40.155Z,13.70
2019-04-23T06:29:19.470Z,13.70
2019-04-23T06:34:21.977Z,14.00
2019-04-23T06:36:40.420Z,14.10
2019-04-23T06:39:06.727Z,14.40
2019-04-23T06:41:37.564Z,14.50
2019-04-23T06:44:19.190Z,14.60
2019-04-23T06:46:50.258Z,14.60
2019-04-23T06:49:20.133Z,14.60
2019-04-23T06:51:53.344Z,14.60
2019-04-23T06:54:19.064Z,14.80
2019-04-23T06:56:54.230Z,15.00
2019-04-23T06:59:19.918Z,15.30
2019-04-23T07:01:53.074Z,15.20
2019-04-23T07:04:18.797Z,15.50
2019-04-23T07:06:58.215Z,15.70
2019-04-23T07:09:13.543Z,15.70
2019-04-23T07:11:51.274Z,15.80
2019-04-23T07:14:14.783Z,15.90
2019-04-23T07:17:03.841Z,16.20
2019-04-23T07:19:23.608Z,16.40
2019-04-23T07:21:52.547Z,16.40
2019-04-23T07:24:15.187Z,16.60
2019-04-23T07:26:41.864Z,16.50
2019-04-23T07:29:17.860Z,16.50
2019-04-23T07:31:53.900Z,16.60
2019-04-23T07:34:21.351Z,18.20
2019-04-23T07:36:55.762Z,16.80
2019-04-23T07:39:44.413Z,16.70
2019-04-23T07:45:12.423Z,17.10
2019-04-23T07:47:42.231Z,17.20
2019-04-23T07:50:26.068Z,17.20
2019-04-23T07:52:50.727Z,17.20
2019-04-23T07:57:49.578Z,17.30
2019-04-23T08:00:25.422Z,17.70
2019-04-23T08:02:44.019Z,17.70
2019-04-23T08:07:52.986Z,18.10
2019-04-23T08:10:21.218Z,17.80
2019-04-23T08:12:55.816Z,18.00
2019-04-23T08:15:23.087Z,18.30
2019-04-23T08:17:56.057Z,18.50
2019-04-23T08:20:28.917Z,18.50
2019-04-23T08:22:57.253Z,18.50
2019-04-23T08:25:47.151Z,18.60
2019-04-23T08:28:13.435Z,19.00
2019-04-23T08:30:42.334Z,19.20
2019-04-23T08:33:15.760Z,19.00
2019-04-23T08:35:45.359Z,19.00
2019-04-23T08:38:21.056Z,19.30
2019-04-23T08:40:54.386Z,19.30
2019-04-23T08:43:29.340Z,19.50
2019-04-23T08:46:07.900Z,19.80
2019-04-23T08:48:51.852Z,20.30
2019-04-23T08:51:11.045Z,20.70
2019-04-23T08:56:07.457Z,21.30
2019-04-23T08:58:30.171Z,21.20
2019-04-23T09:01:05.106Z,21.30
2019-04-23T09:06:06.302Z,21.90
2019-04-23T09:08:35.972Z,21.40
2019-04-23T09:11:05.128Z,21.00
2019-04-23T09:18:26.187Z,21.50
2019-04-23T09:20:57.173Z,21.40
2019-04-23T09:23:34.912Z,21.80
2019-04-23T09:25:59.208Z,21.60
2019-04-23T09:31:11.668Z,22.00
2019-04-23T09:33:46.937Z,22.80
2019-04-23T09:36:45.603Z,23.50
2019-04-23T09:39:12.775Z,23.90
2019-04-23T09:41:47.618Z,23.50
2019-04-23T09:47:30.034Z,23.10
2019-04-23T09:49:57.324Z,23.00
2019-04-23T09:54:59.605Z,22.90
2019-04-23T09:57:22.276Z,22.70
2019-04-23T09:59:49.921Z,22.90
2019-04-23T10:02:19.495Z,22.80
2019-04-23T10:04:41.140Z,23.00
2019-04-23T10:07:11.553Z,23.60
2019-04-23T10:09:27.341Z,24.00
2019-04-23T10:11:58.630Z,24.10
2019-04-23T10:14:28.489Z,24.50
2019-04-23T10:16:58.019Z,24.60
2019-04-23T10:19:26.917Z,23.60
2019-04-23T10:21:55.540Z,23.50
2019-04-23T10:24:25.352Z,22.50
2019-04-23T10:26:52.748Z,22.80
2019-04-23T10:29:27.745Z,23.00
2019-04-23T10:31:57.589Z,23.00
2019-04-23T10:34:27.302Z,23.10
2019-04-23T10:36:55.571Z,23.00
2019-04-23T10:39:28.351Z,22.80
2019-04-23T10:41:55.367Z,22.80
2019-04-23T10:44:33.445Z,22.40
2019-04-23T10:47:47.764Z,22.70
2019-04-23T10:50:49.582Z,22.70
2019-04-23T10:53:23.461Z,23.10
2019-04-23T10:55:46.864Z,23.50
2019-04-23T10:58:16.441Z,23.90
2019-04-23T11:00:46.916Z,23.90
2019-04-23T11:03:35.723Z,23.50
2019-04-23T11:05:53.849Z,24.10
2019-04-23T11:08:10.001Z,24.60
2019-04-23T11:10:41.038Z,23.90
2019-04-23T11:18:45.440Z,23.30
2019-04-23T11:21:09.149Z,23.30
2019-04-23T11:23:34.391Z,23.60
2019-04-23T11:26:09.069Z,23.70
2019-04-23T11:28:39.663Z,23.60
2019-04-23T11:31:15.142Z,23.30
2019-04-23T11:36:43.716Z,23.90
2019-04-23T11:41:11.704Z,24.00
2019-04-23T11:46:17.934Z,23.90
2019-04-23T11:48:52.199Z,23.90
2019-04-23T11:51:38.465Z,24.10
2019-04-23T11:53:42.560Z,24.40
2019-04-23T11:56:18.961Z,24.20
2019-04-23T11:58:35.760Z,23.70
2019-04-23T12:01:41.970Z,23.40
2019-04-23T12:04:21.234Z,23.10
2019-04-23T12:07:21.409Z,23.20
2019-04-23T12:12:23.776Z,23.70
2019-04-23T12:15:22.499Z,23.70
2019-04-23T12:17:49.106Z,23.10
2019-04-23T12:20:21.418Z,23.70
2019-04-23T12:23:01.149Z,23.90
2019-04-23T12:27:39.794Z,23.90
2019-04-23T12:30:30.198Z,24.50
2019-04-23T12:32:56.604Z,24.50
2019-04-23T12:35:21.526Z,24.60
2019-04-23T12:37:55.521Z,24.50
2019-04-23T12:40:25.153Z,24.20
2019-04-23T12:43:07.803Z,24.30
2019-04-23T12:53:01.470Z,24.70
2019-04-23T12:55:39.957Z,24.30
2019-04-23T12:57:52.312Z,24.40
2019-04-23T13:00:25.935Z,24.60
2019-04-23T13:03:13.674Z,24.80
2019-04-23T13:05:34.461Z,24.60
2019-04-23T13:08:15.805Z,24.80
2019-04-23T13:10:30.178Z,24.90
2019-04-23T13:13:01.322Z,24.90
2019-04-23T13:17:55.500Z,24.90
2019-04-23T13:20:28.033Z,24.80
2019-04-23T13:23:05.193Z,24.90
2019-04-23T13:25:39.830Z,25.20
2019-04-23T13:28:15.409Z,25.20
2019-04-23T13:30:46.085Z,24.90
2019-04-23T13:33:21.145Z,24.30
2019-04-23T13:38:17.400Z,25.00
2019-04-23T13:40:53.174Z,25.10
2019-04-23T13:43:25.671Z,25.40
2019-04-23T13:50:53.083Z,24.60
2019-04-23T13:53:29.031Z,24.50
2019-04-23T13:55:42.279Z,24.20
2019-04-23T14:01:01.091Z,24.00
2019-04-23T14:03:30.477Z,24.10
2019-04-23T14:06:24.477Z,24.20
2019-04-23T14:08:48.610Z,24.20
2019-04-23T14:13:55.232Z,23.90
2019-04-23T14:18:55.995Z,23.90
2019-04-23T14:24:04.646Z,24.10
2019-04-23T14:26:25.570Z,24.30
2019-04-23T14:28:41.837Z,24.40
2019-04-23T14:31:11.181Z,24.50
2019-04-23T14:33:53.110Z,24.50
2019-04-23T14:36:19.503Z,24.40
2019-04-23T14:41:23.475Z,24.40
2019-04-23T14:43:56.603Z,24.40
2019-04-23T14:46:36.088Z,24.50
2019-04-23T14:48:56.741Z,24.40
2019-04-23T14:51:31.954Z,24.00
2019-04-23T14:53:53.812Z,23.80
2019-04-23T14:56:32.676Z,23.70
2019-04-23T15:03:58.625Z,23.80
2019-04-23T15:06:36.336Z,24.00
2019-04-23T15:11:38.830Z,24.20
2019-04-23T15:14:11.891Z,24.10
2019-04-23T15:16:43.113Z,23.80
2019-04-23T15:19:36.685Z,23.70
2019-04-23T15:22:05.219Z,23.60
2019-04-23T15:24:27.605Z,23.50
2019-04-23T15:29:12.960Z,23.40
2019-04-23T15:32:00.792Z,23.30
2019-04-23T15:34:30.546Z,23.40
2019-04-23T15:39:42.679Z,23.50
2019-04-23T15:42:26.419Z,23.40
2019-04-23T15:44:43.802Z,23.40
2019-04-23T15:47:19.331Z,23.30
2019-04-23T15:49:51.569Z,23.30
2019-04-23T15:52:42.034Z,23.20
2019-04-23T15:54:50.578Z,23.20
2019-04-23T15:57:49.950Z,23.20
2019-04-23T15:59:58.847Z,23.10
2019-04-23T16:02:03.181Z,23.00
2019-04-23T16:04:33.636Z,23.00
2019-04-23T16:07:02.511Z,22.80
2019-04-23T16:10:04.223Z,22.80
2019-04-23T16:12:27.836Z,22.80
2019-04-23T16:15:06.475Z,22.90
2019-04-23T16:20:14.782Z,22.90
2019-04-23T16:22:39.672Z,23.00
2019-04-23T16:25:13.356Z,23.10
2019-04-23T16:27:49.259Z,23.10
2019-04-23T16:30:19.243Z,23.20
2019-04-23T16:40:47.719Z,23.30
2019-04-23T16:43:42.466Z,23.30
2019-04-23T16:46:02.368Z,23.30
2019-04-23T16:51:16.463Z,23.30
2019-04-23T16:53:46.348Z,23.40
2019-04-23T16:56:11.535Z,23.40
2019-04-23T16:58:45.845Z,23.40
2019-04-23T17:03:38.368Z,23.30
2019-04-23T17:06:24.680Z,23.20
2019-04-23T17:08:53.103Z,23.10
2019-04-23T17:11:15.253Z,23.10
2019-04-23T17:13:44.703Z,23.00
2019-04-23T17:16:18.277Z,22.90
2019-04-23T17:18:47.156Z,22.80
2019-04-23T17:21:18.658Z,22.70
2019-04-23T17:28:54.307Z,22.30
2019-04-23T17:34:00.046Z,22.10
2019-04-23T17:39:47.480Z,21.90
2019-04-23T17:42:34.705Z,21.70
2019-04-23T17:47:54.199Z,21.30
2019-04-23T17:50:23.138Z,20.90
2019-04-23T17:52:56.298Z,20.90
2019-04-23T17:55:22.338Z,20.70
2019-04-23T17:58:01.675Z,20.50
2019-04-23T18:05:40.822Z,19.90
2019-04-23T18:08:13.752Z,19.70
2019-04-23T18:10:48.633Z,19.60
2019-04-23T18:13:22.986Z,19.40
2019-04-23T18:15:58.370Z,19.40
2019-04-23T18:18:31.100Z,19.40
2019-04-23T18:21:21.257Z,19.30
2019-04-23T18:26:56.898Z,18.80
2019-04-23T18:29:53.647Z,18.60
2019-04-23T18:32:35.978Z,18.40
2019-04-23T18:35:16.998Z,18.20
2019-04-23T18:37:52.393Z,18.10
2019-04-23T18:40:08.551Z,17.90
2019-04-23T18:42:43.688Z,17.80
2019-04-23T18:45:20.715Z,17.80
2019-04-23T18:47:48.727Z,17.70
2019-04-23T18:50:22.516Z,17.50
2019-04-23T18:52:55.573Z,17.50
2019-04-23T18:55:37.050Z,17.50
2019-04-23T18:58:00.599Z,17.90
2019-04-23T19:00:45.468Z,17.50
2019-04-23T19:12:26.676Z,17.90
2019-04-23T19:14:38.748Z,17.70
2019-04-23T19:17:36.075Z,17.50
2019-04-23T19:19:44.122Z,17.40
2019-04-23T19:24:37.751Z,17.60
2019-04-23T19:29:44.027Z,17.50
2019-04-23T19:32:06.617Z,17.50
2019-04-23T19:34:42.715Z,17.40
2019-04-23T19:37:23.359Z,17.50
2019-04-23T19:39:47.832Z,17.40
2019-04-23T19:42:26.658Z,17.10
2019-04-23T19:45:06.111Z,17.10
2019-04-23T19:47:33.162Z,16.90
2019-04-23T19:49:48.430Z,17.30
2019-04-23T19:52:20.757Z,16.70
2019-04-23T19:54:55.404Z,16.60
2019-04-23T19:57:42.658Z,16.80
2019-04-23T19:59:59.528Z,17.10
2019-04-23T20:02:45.111Z,17.10
2019-04-23T20:04:59.472Z,17.00
2019-04-23T20:07:43.115Z,17.10
2019-04-23T20:09:56.493Z,17.40
2019-04-23T20:12:33.225Z,17.40
2019-04-23T20:15:00.054Z,17.10
2019-04-23T20:20:06.213Z,16.70
2019-04-23T20:22:42.150Z,16.90
2019-04-23T20:25:38.062Z,17.00
2019-04-23T20:27:47.914Z,16.90
2019-04-23T20:35:53.986Z,17.00
2019-04-23T20:38:48.579Z,17.10
2019-04-23T20:41:14.807Z,17.10
2019-04-23T20:43:32.254Z,17.20
2019-04-23T20:45:58.958Z,17.10
2019-04-23T20:48:37.202Z,16.90
2019-04-23T20:50:52.302Z,16.90
2019-04-23T20:53:32.772Z,16.90
2019-04-23T20:56:07.322Z,16.70
2019-04-23T20:58:54.937Z,16.70
2019-04-23T21:01:43.473Z,16.70
2019-04-23T21:04:18.873Z,17.20
2019-04-23T21:06:39.397Z,15.40
2019-04-23T21:11:40.874Z,16.60
2019-04-23T21:14:24.032Z,16.70
2019-04-23T21:16:42.687Z,16.70
2019-04-23T21:19:02.468Z,16.70
2019-04-23T21:22:05.421Z,16.60
2019-04-23T21:24:40.128Z,16.60
2019-04-23T21:27:21.774Z,17.80
2019-04-23T21:29:53.654Z,16.60
2019-04-23T21:32:33.211Z,16.60
2019-04-23T21:35:05.562Z,16.50
2019-04-23T21:37:53.776Z,16.50
2019-04-23T21:45:48.632Z,16.20
2019-04-23T21:48:09.922Z,16.10
2019-04-23T21:50:43.806Z,15.90
2019-04-23T21:53:07.149Z,15.80
2019-04-23T21:55:48.433Z,15.80
2019-04-23T22:00:46.196Z,15.70
2019-04-23T22:03:28.997Z,15.70
2019-04-23T22:05:42.868Z,15.60
2019-04-23T22:08:07.836Z,15.50
2019-04-23T22:10:59.949Z,15.30
2019-04-23T22:13:20.300Z,15.10
2019-04-23T22:15:53.533Z,15.00
2019-04-23T22:18:12.868Z,14.90
2019-04-23T22:20:56.298Z,14.90
2019-04-23T22:23:24.666Z,14.80
2019-04-23T22:25:56.703Z,14.60
2019-04-23T22:28:17.676Z,14.50
2019-04-23T22:30:55.012Z,14.40
2019-04-23T22:33:29.418Z,14.40
2019-04-23T22:36:06.271Z,14.30
2019-04-23T22:40:56.153Z,14.10
2019-04-23T22:46:16.119Z,13.80
2019-04-23T22:48:34.041Z,13.60
2019-04-23T22:53:36.515Z,13.10
2019-04-23T22:58:44.944Z,12.70
2019-04-23T23:04:13.358Z,12.40
2019-04-23T23:06:50.646Z,12.30
2019-04-23T23:09:33.444Z,12.20
2019-04-23T23:11:49.369Z,12.20
2019-04-23T23:19:25.130Z,11.90
2019-04-23T23:24:21.647Z,11.70
2019-04-23T23:26:57.324Z,11.60
2019-04-23T23:29:49.659Z,11.50
2019-04-23T23:32:07.912Z,11.50
2019-04-23T23:34:39.934Z,11.50
2019-04-23T23:37:12.089Z,11.40
2019-04-23T23:39:37.162Z,11.40
2019-04-23T23:42:09.646Z,11.20
2019-04-23T23:44:51.325Z,11.20
2019-04-23T23:47:14.817Z,11.10
2019-04-23T23:49:43.832Z,11.10
2019-04-23T23:54:45.329Z,11.20
2019-04-23T23:57:16.404Z,11.20
